sensor_id;sensor_type;location;lat;lon;timestamp;P1;durP1;ratioP1;P2;durP2;ratioP2
10315;SDS011;5203;48.976;8.306;2024-03-06T00:01:49;11.38;;;9.85;;
10315;SDS011;5203;48.976;8.306;2024-03-06T00:04:15;13.10;;;8.68;;
10315;SDS011;5203;48.976;8.306;2024-03-06T00:06:40;11.52;;;8.35;;
10315;SDS011;5203;48.976;8.306;2024-03-06T00:09:06;13.85;;;9.15;;
10315;SDS011;5203;48.976;8.306;2024-03-06T00:11:35;14.50;;;9.30;;
10315;SDS011;5203;48.976;8.306;2024-03-06T00:14:04;12.05;;;7.57;;
10315;SDS011;5203;48.976;8.306;2024-03-06T00:16:30;12.77;;;8.70;;
10315;SDS011;5203;48.976;8.306;2024-03-06T00:18:57;12.85;;;8.38;;
10315;SDS011;5203;48.976;8.306;2024-03-06T00:21:22;11.90;;;9.63;;
10315;SDS011;5203;48.976;8.306;2024-03-06T00:23:48;13.88;;;8.85;;
10315;SDS011;5203;48.976;8.306;2024-03-06T00:26:14;12.25;;;8.65;;
10315;SDS011;5203;48.976;8.306;2024-03-06T00:28:39;15.07;;;9.68;;
10315;SDS011;5203;48.976;8.306;2024-03-06T00:31:05;12.05;;;7.65;;
10315;SDS011;5203;48.976;8.306;2024-03-06T00:33:31;14.13;;;8.55;;
10315;SDS011;5203;48.976;8.306;2024-03-06T00:35:57;10.40;;;7.78;;
10315;SDS011;5203;48.976;8.306;2024-03-06T00:38:22;12.50;;;8.27;;
10315;SDS011;5203;48.976;8.306;2024-03-06T00:40:48;12.18;;;8.63;;
10315;SDS011;5203;48.976;8.306;2024-03-06T00:43:14;10.93;;;7.65;;
10315;SDS011;5203;48.976;8.306;2024-03-06T00:45:40;10.93;;;8.13;;
10315;SDS011;5203;48.976;8.306;2024-03-06T00:48:06;14.25;;;8.93;;
10315;SDS011;5203;48.976;8.306;2024-03-06T00:50:32;13.82;;;9.63;;
10315;SDS011;5203;48.976;8.306;2024-03-06T00:52:58;14.07;;;8.70;;
10315;SDS011;5203;48.976;8.306;2024-03-06T00:55:24;11.88;;;8.20;;
10315;SDS011;5203;48.976;8.306;2024-03-06T00:57:50;13.93;;;8.57;;
10315;SDS011;5203;48.976;8.306;2024-03-06T01:00:16;12.55;;;8.32;;
10315;SDS011;5203;48.976;8.306;2024-03-06T01:02:42;14.75;;;8.43;;
10315;SDS011;5203;48.976;8.306;2024-03-06T01:05:08;12.75;;;8.57;;
10315;SDS011;5203;48.976;8.306;2024-03-06T01:07:34;12.50;;;10.73;;
10315;SDS011;5203;48.976;8.306;2024-03-06T01:10:02;13.00;;;8.60;;
10315;SDS011;5203;48.976;8.306;2024-03-06T01:12:31;12.02;;;8.52;;
10315;SDS011;5203;48.976;8.306;2024-03-06T01:14:58;12.82;;;8.02;;
10315;SDS011;5203;48.976;8.306;2024-03-06T01:17:23;14.35;;;8.52;;
10315;SDS011;5203;48.976;8.306;2024-03-06T01:19:49;13.27;;;8.13;;
10315;SDS011;5203;48.976;8.306;2024-03-06T01:22:15;10.77;;;8.13;;
10315;SDS011;5203;48.976;8.306;2024-03-06T01:24:41;10.75;;;8.18;;
10315;SDS011;5203;48.976;8.306;2024-03-06T01:27:07;14.52;;;8.27;;
10315;SDS011;5203;48.976;8.306;2024-03-06T01:29:33;10.95;;;8.23;;
10315;SDS011;5203;48.976;8.306;2024-03-06T01:31:59;12.48;;;7.50;;
10315;SDS011;5203;48.976;8.306;2024-03-06T01:34:25;13.50;;;8.70;;
10315;SDS011;5203;48.976;8.306;2024-03-06T01:36:51;12.52;;;7.53;;
10315;SDS011;5203;48.976;8.306;2024-03-06T01:39:17;13.38;;;7.97;;
10315;SDS011;5203;48.976;8.306;2024-03-06T01:41:46;10.27;;;8.10;;
10315;SDS011;5203;48.976;8.306;2024-03-06T01:44:16;9.57;;;8.48;;
10315;SDS011;5203;48.976;8.306;2024-03-06T01:46:43;14.23;;;9.45;;
10315;SDS011;5203;48.976;8.306;2024-03-06T01:49:10;13.68;;;7.80;;
10315;SDS011;5203;48.976;8.306;2024-03-06T01:51:38;12.32;;;8.02;;
10315;SDS011;5203;48.976;8.306;2024-03-06T01:54:05;12.68;;;7.90;;
10315;SDS011;5203;48.976;8.306;2024-03-06T01:56:32;13.32;;;8.20;;
10315;SDS011;5203;48.976;8.306;2024-03-06T01:59:00;14.15;;;9.00;;
10315;SDS011;5203;48.976;8.306;2024-03-06T02:01:27;13.52;;;8.73;;
10315;SDS011;5203;48.976;8.306;2024-03-06T02:03:53;12.63;;;8.48;;
10315;SDS011;5203;48.976;8.306;2024-03-06T02:06:19;12.95;;;8.63;;
10315;SDS011;5203;48.976;8.306;2024-03-06T02:08:46;8.77;;;7.40;;
10315;SDS011;5203;48.976;8.306;2024-03-06T02:11:12;12.98;;;7.97;;
10315;SDS011;5203;48.976;8.306;2024-03-06T02:13:39;12.05;;;8.05;;
10315;SDS011;5203;48.976;8.306;2024-03-06T02:16:05;11.48;;;7.53;;
10315;SDS011;5203;48.976;8.306;2024-03-06T02:18:31;13.02;;;8.48;;
10315;SDS011;5203;48.976;8.306;2024-03-06T02:20:57;11.73;;;8.20;;
10315;SDS011;5203;48.976;8.306;2024-03-06T02:23:22;9.07;;;6.70;;
10315;SDS011;5203;48.976;8.306;2024-03-06T02:25:48;10.43;;;7.40;;
10315;SDS011;5203;48.976;8.306;2024-03-06T02:28:15;11.75;;;10.60;;
10315;SDS011;5203;48.976;8.306;2024-03-06T02:30:41;8.43;;;7.60;;
10315;SDS011;5203;48.976;8.306;2024-03-06T02:33:07;13.18;;;7.13;;
10315;SDS011;5203;48.976;8.306;2024-03-06T02:35:34;14.13;;;7.28;;
10315;SDS011;5203;48.976;8.306;2024-03-06T02:38:03;10.55;;;7.13;;
10315;SDS011;5203;48.976;8.306;2024-03-06T02:40:32;12.07;;;6.70;;
10315;SDS011;5203;48.976;8.306;2024-03-06T02:42:58;11.55;;;6.82;;
10315;SDS011;5203;48.976;8.306;2024-03-06T02:45:24;11.75;;;6.78;;
10315;SDS011;5203;48.976;8.306;2024-03-06T02:47:50;12.55;;;8.38;;
10315;SDS011;5203;48.976;8.306;2024-03-06T02:50:15;9.27;;;7.35;;
10315;SDS011;5203;48.976;8.306;2024-03-06T02:52:41;13.55;;;9.75;;
10315;SDS011;5203;48.976;8.306;2024-03-06T02:55:07;13.93;;;8.18;;
10315;SDS011;5203;48.976;8.306;2024-03-06T02:57:33;10.00;;;7.05;;
10315;SDS011;5203;48.976;8.306;2024-03-06T02:59:58;15.38;;;8.95;;
10315;SDS011;5203;48.976;8.306;2024-03-06T03:02:25;13.82;;;9.82;;
10315;SDS011;5203;48.976;8.306;2024-03-06T03:04:51;10.93;;;7.57;;
10315;SDS011;5203;48.976;8.306;2024-03-06T03:07:20;13.90;;;10.43;;
10315;SDS011;5203;48.976;8.306;2024-03-06T03:09:46;12.70;;;8.30;;
10315;SDS011;5203;48.976;8.306;2024-03-06T03:12:14;14.93;;;8.55;;
10315;SDS011;5203;48.976;8.306;2024-03-06T03:14:40;15.00;;;8.25;;
10315;SDS011;5203;48.976;8.306;2024-03-06T03:17:07;15.68;;;9.68;;
10315;SDS011;5203;48.976;8.306;2024-03-06T03:19:32;14.13;;;9.48;;
10315;SDS011;5203;48.976;8.306;2024-03-06T03:21:58;10.70;;;8.43;;
10315;SDS011;5203;48.976;8.306;2024-03-06T03:24:24;12.40;;;8.85;;
10315;SDS011;5203;48.976;8.306;2024-03-06T03:26:51;13.02;;;8.98;;
10315;SDS011;5203;48.976;8.306;2024-03-06T03:29:17;14.95;;;8.75;;
10315;SDS011;5203;48.976;8.306;2024-03-06T03:31:43;11.50;;;8.90;;
10315;SDS011;5203;48.976;8.306;2024-03-06T03:34:09;14.82;;;8.85;;
10315;SDS011;5203;48.976;8.306;2024-03-06T03:36:41;12.43;;;9.38;;
10315;SDS011;5203;48.976;8.306;2024-03-06T03:39:08;10.63;;;8.18;;
10315;SDS011;5203;48.976;8.306;2024-03-06T03:41:46;14.65;;;9.20;;
10315;SDS011;5203;48.976;8.306;2024-03-06T03:44:16;11.15;;;9.10;;
10315;SDS011;5203;48.976;8.306;2024-03-06T03:46:44;14.50;;;9.10;;
10315;SDS011;5203;48.976;8.306;2024-03-06T03:49:10;15.02;;;10.20;;
10315;SDS011;5203;48.976;8.306;2024-03-06T03:51:36;10.20;;;8.43;;
10315;SDS011;5203;48.976;8.306;2024-03-06T03:54:03;12.27;;;8.55;;
10315;SDS011;5203;48.976;8.306;2024-03-06T03:56:29;18.52;;;8.98;;
10315;SDS011;5203;48.976;8.306;2024-03-06T03:58:57;12.52;;;9.05;;
10315;SDS011;5203;48.976;8.306;2024-03-06T04:01:24;12.65;;;9.15;;
10315;SDS011;5203;48.976;8.306;2024-03-06T04:03:50;13.23;;;10.35;;
10315;SDS011;5203;48.976;8.306;2024-03-06T04:06:17;12.30;;;10.05;;
10315;SDS011;5203;48.976;8.306;2024-03-06T04:08:43;14.93;;;8.57;;
10315;SDS011;5203;48.976;8.306;2024-03-06T04:11:09;12.18;;;8.00;;
10315;SDS011;5203;48.976;8.306;2024-03-06T04:13:38;11.30;;;8.05;;
10315;SDS011;5203;48.976;8.306;2024-03-06T04:16:04;9.05;;;6.93;;
10315;SDS011;5203;48.976;8.306;2024-03-06T04:18:31;8.15;;;6.85;;
10315;SDS011;5203;48.976;8.306;2024-03-06T04:21:03;9.13;;;6.07;;
10315;SDS011;5203;48.976;8.306;2024-03-06T04:23:30;7.63;;;6.05;;
10315;SDS011;5203;48.976;8.306;2024-03-06T04:25:56;12.27;;;6.15;;
10315;SDS011;5203;48.976;8.306;2024-03-06T04:28:22;10.43;;;7.47;;
10315;SDS011;5203;48.976;8.306;2024-03-06T04:30:47;10.20;;;6.57;;
10315;SDS011;5203;48.976;8.306;2024-03-06T04:33:13;9.93;;;7.45;;
10315;SDS011;5203;48.976;8.306;2024-03-06T04:35:40;9.30;;;6.15;;
10315;SDS011;5203;48.976;8.306;2024-03-06T04:38:06;10.80;;;6.65;;
10315;SDS011;5203;48.976;8.306;2024-03-06T04:40:33;9.43;;;5.70;;
10315;SDS011;5203;48.976;8.306;2024-03-06T04:42:59;8.82;;;5.43;;
10315;SDS011;5203;48.976;8.306;2024-03-06T04:45:27;9.82;;;6.90;;
10315;SDS011;5203;48.976;8.306;2024-03-06T04:47:54;10.68;;;7.45;;
10315;SDS011;5203;48.976;8.306;2024-03-06T04:50:20;7.57;;;5.93;;
10315;SDS011;5203;48.976;8.306;2024-03-06T04:52:45;7.80;;;5.97;;
10315;SDS011;5203;48.976;8.306;2024-03-06T04:55:11;7.95;;;6.47;;
10315;SDS011;5203;48.976;8.306;2024-03-06T04:57:38;9.70;;;6.97;;
10315;SDS011;5203;48.976;8.306;2024-03-06T05:02:31;10.30;;;6.72;;
10315;SDS011;5203;48.976;8.306;2024-03-06T05:04:59;9.07;;;7.50;;
10315;SDS011;5203;48.976;8.306;2024-03-06T05:07:26;11.73;;;7.03;;
10315;SDS011;5203;48.976;8.306;2024-03-06T05:09:53;12.85;;;7.28;;
10315;SDS011;5203;48.976;8.306;2024-03-06T05:12:18;13.43;;;7.82;;
10315;SDS011;5203;48.976;8.306;2024-03-06T05:14:44;11.40;;;7.35;;
10315;SDS011;5203;48.976;8.306;2024-03-06T05:17:10;14.23;;;8.60;;
10315;SDS011;5203;48.976;8.306;2024-03-06T05:19:36;12.30;;;8.07;;
10315;SDS011;5203;48.976;8.306;2024-03-06T05:22:02;11.63;;;7.70;;
10315;SDS011;5203;48.976;8.306;2024-03-06T05:24:28;15.18;;;8.65;;
10315;SDS011;5203;48.976;8.306;2024-03-06T05:26:54;7.55;;;6.05;;
10315;SDS011;5203;48.976;8.306;2024-03-06T05:29:20;11.35;;;7.05;;
10315;SDS011;5203;48.976;8.306;2024-03-06T05:31:46;14.52;;;8.10;;
10315;SDS011;5203;48.976;8.306;2024-03-06T05:34:11;8.93;;;6.75;;
10315;SDS011;5203;48.976;8.306;2024-03-06T05:36:37;12.82;;;7.65;;
10315;SDS011;5203;48.976;8.306;2024-03-06T05:39:03;9.68;;;6.25;;
10315;SDS011;5203;48.976;8.306;2024-03-06T05:41:38;10.65;;;6.22;;
10315;SDS011;5203;48.976;8.306;2024-03-06T05:44:05;12.13;;;7.65;;
10315;SDS011;5203;48.976;8.306;2024-03-06T05:46:31;9.68;;;6.93;;
10315;SDS011;5203;48.976;8.306;2024-03-06T05:48:57;9.27;;;6.32;;
10315;SDS011;5203;48.976;8.306;2024-03-06T05:51:23;12.60;;;6.63;;
10315;SDS011;5203;48.976;8.306;2024-03-06T05:53:48;10.60;;;6.28;;
10315;SDS011;5203;48.976;8.306;2024-03-06T05:56:14;11.20;;;6.25;;
10315;SDS011;5203;48.976;8.306;2024-03-06T05:58:40;14.02;;;6.95;;
10315;SDS011;5203;48.976;8.306;2024-03-06T06:01:05;9.30;;;6.60;;
10315;SDS011;5203;48.976;8.306;2024-03-06T06:03:31;13.25;;;7.63;;
10315;SDS011;5203;48.976;8.306;2024-03-06T06:05:57;8.63;;;7.45;;
10315;SDS011;5203;48.976;8.306;2024-03-06T06:08:24;10.43;;;6.50;;
10315;SDS011;5203;48.976;8.306;2024-03-06T06:10:49;11.30;;;6.75;;
10315;SDS011;5203;48.976;8.306;2024-03-06T06:13:17;11.77;;;7.20;;
10315;SDS011;5203;48.976;8.306;2024-03-06T06:15:46;10.35;;;6.57;;
10315;SDS011;5203;48.976;8.306;2024-03-06T06:18:12;10.00;;;6.95;;
10315;SDS011;5203;48.976;8.306;2024-03-06T06:20:37;10.50;;;6.47;;
10315;SDS011;5203;48.976;8.306;2024-03-06T06:23:03;11.82;;;7.40;;
10315;SDS011;5203;48.976;8.306;2024-03-06T06:25:29;13.75;;;7.60;;
10315;SDS011;5203;48.976;8.306;2024-03-06T06:30:23;11.25;;;6.97;;
10315;SDS011;5203;48.976;8.306;2024-03-06T06:32:49;13.02;;;7.68;;
10315;SDS011;5203;48.976;8.306;2024-03-06T06:35:18;21.02;;;7.60;;
10315;SDS011;5203;48.976;8.306;2024-03-06T06:37:44;19.55;;;10.15;;
10315;SDS011;5203;48.976;8.306;2024-03-06T06:40:09;10.60;;;8.10;;
10315;SDS011;5203;48.976;8.306;2024-03-06T06:42:37;9.98;;;7.78;;
10315;SDS011;5203;48.976;8.306;2024-03-06T06:45:09;13.88;;;8.20;;
10315;SDS011;5203;48.976;8.306;2024-03-06T06:47:34;11.20;;;9.70;;
10315;SDS011;5203;48.976;8.306;2024-03-06T06:50:00;11.07;;;7.13;;
10315;SDS011;5203;48.976;8.306;2024-03-06T06:52:30;11.85;;;10.52;;
10315;SDS011;5203;48.976;8.306;2024-03-06T06:54:58;12.52;;;8.57;;
10315;SDS011;5203;48.976;8.306;2024-03-06T06:57:24;14.93;;;8.52;;
10315;SDS011;5203;48.976;8.306;2024-03-06T06:59:49;13.68;;;9.18;;
10315;SDS011;5203;48.976;8.306;2024-03-06T07:02:15;13.57;;;8.80;;
10315;SDS011;5203;48.976;8.306;2024-03-06T07:04:41;13.38;;;7.95;;
10315;SDS011;5203;48.976;8.306;2024-03-06T07:07:07;16.13;;;9.75;;
10315;SDS011;5203;48.976;8.306;2024-03-06T07:09:32;14.50;;;8.68;;
10315;SDS011;5203;48.976;8.306;2024-03-06T07:11:59;13.93;;;8.35;;
10315;SDS011;5203;48.976;8.306;2024-03-06T07:14:25;13.93;;;9.90;;
10315;SDS011;5203;48.976;8.306;2024-03-06T07:16:50;15.10;;;9.90;;
10315;SDS011;5203;48.976;8.306;2024-03-06T07:19:16;15.05;;;8.40;;
10315;SDS011;5203;48.976;8.306;2024-03-06T07:21:42;15.20;;;8.77;;
10315;SDS011;5203;48.976;8.306;2024-03-06T07:24:09;13.23;;;7.43;;
10315;SDS011;5203;48.976;8.306;2024-03-06T07:26:34;10.50;;;8.13;;
10315;SDS011;5203;48.976;8.306;2024-03-06T07:29:00;10.85;;;7.75;;
10315;SDS011;5203;48.976;8.306;2024-03-06T07:31:29;12.63;;;7.57;;
10315;SDS011;5203;48.976;8.306;2024-03-06T07:33:54;11.20;;;7.32;;
10315;SDS011;5203;48.976;8.306;2024-03-06T07:36:20;18.48;;;9.38;;
10315;SDS011;5203;48.976;8.306;2024-03-06T07:38:47;14.95;;;10.48;;
10315;SDS011;5203;48.976;8.306;2024-03-06T07:41:12;14.95;;;10.23;;
10315;SDS011;5203;48.976;8.306;2024-03-06T07:43:38;15.00;;;8.75;;
10315;SDS011;5203;48.976;8.306;2024-03-06T07:46:04;15.27;;;8.48;;
10315;SDS011;5203;48.976;8.306;2024-03-06T07:48:36;13.15;;;9.63;;
10315;SDS011;5203;48.976;8.306;2024-03-06T07:51:02;15.80;;;9.15;;
10315;SDS011;5203;48.976;8.306;2024-03-06T07:53:28;19.25;;;10.65;;
10315;SDS011;5203;48.976;8.306;2024-03-06T07:55:54;15.57;;;9.90;;
10315;SDS011;5203;48.976;8.306;2024-03-06T07:58:19;17.17;;;10.77;;
10315;SDS011;5203;48.976;8.306;2024-03-06T08:00:46;15.10;;;10.45;;
10315;SDS011;5203;48.976;8.306;2024-03-06T08:03:11;15.63;;;10.75;;
10315;SDS011;5203;48.976;8.306;2024-03-06T08:05:38;16.95;;;10.25;;
10315;SDS011;5203;48.976;8.306;2024-03-06T08:08:04;14.13;;;9.25;;
10315;SDS011;5203;48.976;8.306;2024-03-06T08:10:34;16.40;;;9.35;;
10315;SDS011;5203;48.976;8.306;2024-03-06T08:13:00;16.05;;;10.02;;
10315;SDS011;5203;48.976;8.306;2024-03-06T08:15:26;17.90;;;10.25;;
10315;SDS011;5203;48.976;8.306;2024-03-06T08:17:51;18.85;;;10.18;;
10315;SDS011;5203;48.976;8.306;2024-03-06T08:20:17;20.27;;;9.00;;
10315;SDS011;5203;48.976;8.306;2024-03-06T08:22:43;13.18;;;8.68;;
10315;SDS011;5203;48.976;8.306;2024-03-06T08:25:10;17.80;;;9.43;;
10315;SDS011;5203;48.976;8.306;2024-03-06T08:27:39;14.73;;;10.27;;
10315;SDS011;5203;48.976;8.306;2024-03-06T08:30:06;15.20;;;13.55;;
10315;SDS011;5203;48.976;8.306;2024-03-06T08:32:33;16.73;;;10.02;;
10315;SDS011;5203;48.976;8.306;2024-03-06T08:35:10;19.08;;;10.32;;
10315;SDS011;5203;48.976;8.306;2024-03-06T08:37:37;17.45;;;10.05;;
10315;SDS011;5203;48.976;8.306;2024-03-06T08:40:04;18.23;;;9.93;;
10315;SDS011;5203;48.976;8.306;2024-03-06T08:42:30;16.45;;;10.40;;
10315;SDS011;5203;48.976;8.306;2024-03-06T08:44:57;25.58;;;16.75;;
10315;SDS011;5203;48.976;8.306;2024-03-06T08:47:23;18.08;;;12.10;;
10315;SDS011;5203;48.976;8.306;2024-03-06T08:49:49;19.60;;;11.70;;
10315;SDS011;5203;48.976;8.306;2024-03-06T08:52:15;16.45;;;11.20;;
10315;SDS011;5203;48.976;8.306;2024-03-06T08:54:44;16.15;;;9.93;;
10315;SDS011;5203;48.976;8.306;2024-03-06T08:57:10;16.27;;;11.02;;
10315;SDS011;5203;48.976;8.306;2024-03-06T08:59:36;16.48;;;11.40;;
10315;SDS011;5203;48.976;8.306;2024-03-06T09:02:18;15.80;;;10.65;;
10315;SDS011;5203;48.976;8.306;2024-03-06T09:04:47;14.15;;;9.07;;
10315;SDS011;5203;48.976;8.306;2024-03-06T09:07:14;14.75;;;9.70;;
10315;SDS011;5203;48.976;8.306;2024-03-06T09:09:39;16.35;;;8.95;;
10315;SDS011;5203;48.976;8.306;2024-03-06T09:12:06;13.43;;;8.85;;
10315;SDS011;5203;48.976;8.306;2024-03-06T09:14:35;13.60;;;9.32;;
10315;SDS011;5203;48.976;8.306;2024-03-06T09:17:02;13.05;;;8.02;;
10315;SDS011;5203;48.976;8.306;2024-03-06T09:19:28;15.15;;;8.55;;
10315;SDS011;5203;48.976;8.306;2024-03-06T09:21:54;14.55;;;9.18;;
10315;SDS011;5203;48.976;8.306;2024-03-06T09:24:20;13.63;;;9.10;;
10315;SDS011;5203;48.976;8.306;2024-03-06T09:26:47;15.00;;;8.60;;
10315;SDS011;5203;48.976;8.306;2024-03-06T09:29:21;14.43;;;8.48;;
10315;SDS011;5203;48.976;8.306;2024-03-06T09:31:47;12.85;;;7.97;;
10315;SDS011;5203;48.976;8.306;2024-03-06T09:34:13;15.93;;;8.20;;
10315;SDS011;5203;48.976;8.306;2024-03-06T09:36:45;14.15;;;7.78;;
10315;SDS011;5203;48.976;8.306;2024-03-06T09:39:12;13.00;;;7.60;;
10315;SDS011;5203;48.976;8.306;2024-03-06T09:41:42;12.07;;;7.25;;
10315;SDS011;5203;48.976;8.306;2024-03-06T09:44:11;12.02;;;7.25;;
10315;SDS011;5203;48.976;8.306;2024-03-06T09:46:40;11.45;;;6.53;;
10315;SDS011;5203;48.976;8.306;2024-03-06T09:49:09;9.65;;;5.85;;
10315;SDS011;5203;48.976;8.306;2024-03-06T09:51:42;10.98;;;6.75;;
10315;SDS011;5203;48.976;8.306;2024-03-06T09:54:12;12.82;;;7.57;;
10315;SDS011;5203;48.976;8.306;2024-03-06T09:56:42;14.40;;;7.78;;
10315;SDS011;5203;48.976;8.306;2024-03-06T09:59:12;14.32;;;8.38;;
10315;SDS011;5203;48.976;8.306;2024-03-06T10:01:40;12.40;;;7.32;;
10315;SDS011;5203;48.976;8.306;2024-03-06T10:04:23;13.95;;;7.43;;
10315;SDS011;5203;48.976;8.306;2024-03-06T10:06:54;13.90;;;8.40;;
10315;SDS011;5203;48.976;8.306;2024-03-06T10:09:20;10.60;;;7.60;;
10315;SDS011;5203;48.976;8.306;2024-03-06T10:11:46;13.93;;;7.70;;
10315;SDS011;5203;48.976;8.306;2024-03-06T10:14:12;13.90;;;8.80;;
10315;SDS011;5203;48.976;8.306;2024-03-06T10:19:43;11.80;;;7.82;;
10315;SDS011;5203;48.976;8.306;2024-03-06T10:22:15;14.65;;;9.90;;
10315;SDS011;5203;48.976;8.306;2024-03-06T10:24:41;19.83;;;16.23;;
10315;SDS011;5203;48.976;8.306;2024-03-06T10:27:07;12.13;;;7.97;;
10315;SDS011;5203;48.976;8.306;2024-03-06T10:29:32;16.30;;;8.82;;
10315;SDS011;5203;48.976;8.306;2024-03-06T10:32:00;19.30;;;10.35;;
10315;SDS011;5203;48.976;8.306;2024-03-06T10:34:27;17.35;;;9.30;;
10315;SDS011;5203;48.976;8.306;2024-03-06T10:39:21;14.02;;;8.57;;
10315;SDS011;5203;48.976;8.306;2024-03-06T10:41:54;17.08;;;11.40;;
10315;SDS011;5203;48.976;8.306;2024-03-06T10:44:29;14.25;;;8.52;;
10315;SDS011;5203;48.976;8.306;2024-03-06T10:46:56;15.10;;;10.93;;
10315;SDS011;5203;48.976;8.306;2024-03-06T10:49:25;15.93;;;8.88;;
10315;SDS011;5203;48.976;8.306;2024-03-06T10:54:28;14.48;;;9.63;;
10315;SDS011;5203;48.976;8.306;2024-03-06T10:56:57;15.15;;;9.52;;
10315;SDS011;5203;48.976;8.306;2024-03-06T10:59:27;14.20;;;8.70;;
10315;SDS011;5203;48.976;8.306;2024-03-06T11:01:55;13.60;;;9.38;;
10315;SDS011;5203;48.976;8.306;2024-03-06T11:04:28;14.75;;;10.45;;
10315;SDS011;5203;48.976;8.306;2024-03-06T11:06:58;16.80;;;10.55;;
10315;SDS011;5203;48.976;8.306;2024-03-06T11:09:26;15.20;;;9.65;;
10315;SDS011;5203;48.976;8.306;2024-03-06T11:11:53;17.38;;;9.40;;
10315;SDS011;5203;48.976;8.306;2024-03-06T11:14:23;13.73;;;8.43;;
10315;SDS011;5203;48.976;8.306;2024-03-06T11:19:24;13.35;;;8.93;;
10315;SDS011;5203;48.976;8.306;2024-03-06T11:21:50;17.75;;;9.45;;
10315;SDS011;5203;48.976;8.306;2024-03-06T11:24:19;22.88;;;12.68;;
10315;SDS011;5203;48.976;8.306;2024-03-06T11:26:56;15.18;;;10.02;;
10315;SDS011;5203;48.976;8.306;2024-03-06T11:32:35;15.27;;;10.45;;
10315;SDS011;5203;48.976;8.306;2024-03-06T11:35:03;16.40;;;9.45;;
10315;SDS011;5203;48.976;8.306;2024-03-06T11:37:33;19.20;;;10.95;;
10315;SDS011;5203;48.976;8.306;2024-03-06T11:40:00;17.52;;;9.52;;
10315;SDS011;5203;48.976;8.306;2024-03-06T11:42:33;13.98;;;9.70;;
10315;SDS011;5203;48.976;8.306;2024-03-06T11:45:01;17.58;;;10.80;;
10315;SDS011;5203;48.976;8.306;2024-03-06T11:48:00;16.60;;;9.63;;
10315;SDS011;5203;48.976;8.306;2024-03-06T11:50:26;17.17;;;9.85;;
10315;SDS011;5203;48.976;8.306;2024-03-06T11:52:53;17.77;;;10.38;;
10315;SDS011;5203;48.976;8.306;2024-03-06T11:55:22;16.88;;;11.48;;
10315;SDS011;5203;48.976;8.306;2024-03-06T11:57:52;18.25;;;11.35;;
10315;SDS011;5203;48.976;8.306;2024-03-06T12:00:21;15.60;;;11.02;;
10315;SDS011;5203;48.976;8.306;2024-03-06T12:02:48;21.30;;;11.30;;
10315;SDS011;5203;48.976;8.306;2024-03-06T12:05:16;19.45;;;17.10;;
10315;SDS011;5203;48.976;8.306;2024-03-06T12:08:00;23.17;;;17.02;;
10315;SDS011;5203;48.976;8.306;2024-03-06T12:10:28;20.27;;;11.45;;
10315;SDS011;5203;48.976;8.306;2024-03-06T12:12:54;19.90;;;11.88;;
10315;SDS011;5203;48.976;8.306;2024-03-06T12:15:19;18.67;;;12.57;;
10315;SDS011;5203;48.976;8.306;2024-03-06T12:17:46;20.55;;;11.52;;
10315;SDS011;5203;48.976;8.306;2024-03-06T12:20:15;17.95;;;11.52;;
10315;SDS011;5203;48.976;8.306;2024-03-06T12:22:50;16.90;;;9.85;;
10315;SDS011;5203;48.976;8.306;2024-03-06T12:25:21;19.33;;;13.00;;
10315;SDS011;5203;48.976;8.306;2024-03-06T12:27:48;18.60;;;9.77;;
10315;SDS011;5203;48.976;8.306;2024-03-06T12:30:19;17.60;;;11.95;;
10315;SDS011;5203;48.976;8.306;2024-03-06T12:32:59;18.50;;;11.43;;
10315;SDS011;5203;48.976;8.306;2024-03-06T12:35:29;18.58;;;11.07;;
10315;SDS011;5203;48.976;8.306;2024-03-06T12:37:55;17.77;;;10.90;;
10315;SDS011;5203;48.976;8.306;2024-03-06T12:40:22;21.83;;;11.43;;
10315;SDS011;5203;48.976;8.306;2024-03-06T12:42:48;19.80;;;10.27;;
10315;SDS011;5203;48.976;8.306;2024-03-06T12:45:18;17.52;;;9.95;;
10315;SDS011;5203;48.976;8.306;2024-03-06T12:47:44;19.88;;;9.93;;
10315;SDS011;5203;48.976;8.306;2024-03-06T12:50:13;16.38;;;10.98;;
10315;SDS011;5203;48.976;8.306;2024-03-06T12:52:39;14.68;;;9.65;;
10315;SDS011;5203;48.976;8.306;2024-03-06T12:55:06;15.27;;;9.70;;
10315;SDS011;5203;48.976;8.306;2024-03-06T12:57:32;15.55;;;10.77;;
10315;SDS011;5203;48.976;8.306;2024-03-06T12:59:59;16.05;;;10.35;;
10315;SDS011;5203;48.976;8.306;2024-03-06T13:02:25;17.02;;;11.00;;
10315;SDS011;5203;48.976;8.306;2024-03-06T13:04:51;19.48;;;10.48;;
10315;SDS011;5203;48.976;8.306;2024-03-06T13:07:18;15.82;;;8.82;;
10315;SDS011;5203;48.976;8.306;2024-03-06T13:09:44;16.70;;;10.80;;
10315;SDS011;5203;48.976;8.306;2024-03-06T13:12:10;19.05;;;9.73;;
10315;SDS011;5203;48.976;8.306;2024-03-06T13:14:36;13.20;;;9.57;;
10315;SDS011;5203;48.976;8.306;2024-03-06T13:17:02;24.02;;;12.32;;
10315;SDS011;5203;48.976;8.306;2024-03-06T13:19:28;16.48;;;9.85;;
10315;SDS011;5203;48.976;8.306;2024-03-06T13:21:54;20.05;;;10.40;;
10315;SDS011;5203;48.976;8.306;2024-03-06T13:24:20;19.55;;;10.38;;
10315;SDS011;5203;48.976;8.306;2024-03-06T13:26:46;17.52;;;10.90;;
10315;SDS011;5203;48.976;8.306;2024-03-06T13:29:12;18.40;;;10.15;;
10315;SDS011;5203;48.976;8.306;2024-03-06T13:31:38;15.57;;;10.65;;
10315;SDS011;5203;48.976;8.306;2024-03-06T13:34:04;16.17;;;9.63;;
10315;SDS011;5203;48.976;8.306;2024-03-06T13:36:30;15.43;;;9.27;;
10315;SDS011;5203;48.976;8.306;2024-03-06T13:38:55;14.73;;;9.93;;
10315;SDS011;5203;48.976;8.306;2024-03-06T13:41:22;16.70;;;9.73;;
10315;SDS011;5203;48.976;8.306;2024-03-06T13:43:48;15.60;;;9.38;;
10315;SDS011;5203;48.976;8.306;2024-03-06T13:46:14;12.95;;;9.15;;
10315;SDS011;5203;48.976;8.306;2024-03-06T13:48:40;14.43;;;9.50;;
10315;SDS011;5203;48.976;8.306;2024-03-06T13:51:06;15.55;;;9.85;;
10315;SDS011;5203;48.976;8.306;2024-03-06T13:53:31;15.13;;;8.60;;
10315;SDS011;5203;48.976;8.306;2024-03-06T13:55:57;15.35;;;9.05;;
10315;SDS011;5203;48.976;8.306;2024-03-06T13:58:23;16.13;;;9.57;;
10315;SDS011;5203;48.976;8.306;2024-03-06T14:00:49;17.13;;;10.02;;
10315;SDS011;5203;48.976;8.306;2024-03-06T14:03:16;17.60;;;9.23;;
10315;SDS011;5203;48.976;8.306;2024-03-06T14:05:42;15.18;;;9.18;;
10315;SDS011;5203;48.976;8.306;2024-03-06T14:08:07;13.93;;;8.48;;
10315;SDS011;5203;48.976;8.306;2024-03-06T14:10:36;12.45;;;7.97;;
10315;SDS011;5203;48.976;8.306;2024-03-06T14:13:05;14.80;;;9.00;;
10315;SDS011;5203;48.976;8.306;2024-03-06T14:15:32;14.30;;;8.68;;
10315;SDS011;5203;48.976;8.306;2024-03-06T14:17:58;17.35;;;10.00;;
10315;SDS011;5203;48.976;8.306;2024-03-06T14:20:26;14.93;;;8.82;;
10315;SDS011;5203;48.976;8.306;2024-03-06T14:22:52;17.75;;;10.23;;
10315;SDS011;5203;48.976;8.306;2024-03-06T14:25:18;14.00;;;9.07;;
10315;SDS011;5203;48.976;8.306;2024-03-06T14:27:44;15.25;;;8.63;;
10315;SDS011;5203;48.976;8.306;2024-03-06T14:30:11;14.60;;;8.32;;
10315;SDS011;5203;48.976;8.306;2024-03-06T14:32:37;20.13;;;10.13;;
10315;SDS011;5203;48.976;8.306;2024-03-06T14:35:03;32.72;;;12.95;;
10315;SDS011;5203;48.976;8.306;2024-03-06T14:37:32;21.65;;;12.60;;
10315;SDS011;5203;48.976;8.306;2024-03-06T14:39:58;21.52;;;9.95;;
10315;SDS011;5203;48.976;8.306;2024-03-06T14:42:24;28.63;;;14.40;;
10315;SDS011;5203;48.976;8.306;2024-03-06T14:44:50;17.48;;;9.02;;
10315;SDS011;5203;48.976;8.306;2024-03-06T14:47:19;17.00;;;9.85;;
10315;SDS011;5203;48.976;8.306;2024-03-06T14:49:45;16.92;;;9.82;;
10315;SDS011;5203;48.976;8.306;2024-03-06T14:52:11;16.05;;;9.90;;
10315;SDS011;5203;48.976;8.306;2024-03-06T14:54:38;20.77;;;10.77;;
10315;SDS011;5203;48.976;8.306;2024-03-06T14:57:05;19.45;;;13.07;;
10315;SDS011;5203;48.976;8.306;2024-03-06T14:59:31;24.70;;;10.70;;
10315;SDS011;5203;48.976;8.306;2024-03-06T15:01:57;19.85;;;10.98;;
10315;SDS011;5203;48.976;8.306;2024-03-06T15:04:23;23.75;;;11.50;;